createdAt,value
2022-12-11T00:00:40.992Z,100.00
2022-12-11T00:03:12.765Z,100.00
2022-12-11T00:05:42.514Z,100.00
2022-12-11T00:08:08.967Z,100.00
2022-12-11T00:10:37.943Z,100.00
2022-12-11T00:13:05.136Z,100.00
2022-12-11T00:15:32.201Z,100.00
2022-12-11T00:17:58.621Z,100.00
2022-12-11T00:20:25.045Z,100.00
2022-12-11T00:22:51.377Z,100.00
2022-12-11T00:25:17.890Z,100.00
2022-12-11T00:27:46.129Z,100.00
2022-12-11T00:30:13.182Z,100.00
2022-12-11T00:32:39.580Z,100.00
2022-12-11T00:35:06.167Z,100.00
2022-12-11T00:37:32.630Z,100.00
2022-12-11T00:39:59.074Z,100.00
2022-12-11T00:42:25.458Z,100.00
2022-12-11T00:44:52.085Z,100.00
2022-12-11T00:47:18.427Z,100.00
2022-12-11T00:49:49.569Z,100.00
2022-12-11T00:52:17.968Z,100.00
2022-12-11T00:54:44.929Z,100.00
2022-12-11T00:57:11.458Z,100.00
2022-12-11T00:59:37.866Z,100.00
2022-12-11T01:02:04.247Z,100.00
2022-12-11T01:04:30.630Z,100.00
2022-12-11T01:06:57.027Z,100.00
2022-12-11T01:09:41.789Z,100.00
2022-12-11T01:12:08.217Z,100.00
2022-12-11T01:14:34.605Z,100.00
2022-12-11T01:17:00.968Z,100.00
2022-12-11T01:19:27.404Z,100.00
2022-12-11T01:21:54.058Z,100.00
2022-12-11T01:24:20.621Z,100.00
2022-12-11T01:26:46.992Z,100.00
2022-12-11T01:29:13.305Z,100.00
2022-12-11T01:31:39.690Z,100.00
2022-12-11T01:34:06.040Z,100.00
2022-12-11T01:36:32.421Z,100.00
2022-12-11T01:38:58.798Z,100.00
2022-12-11T01:41:25.181Z,100.00
2022-12-11T01:44:03.736Z,100.00
2022-12-11T01:46:31.587Z,100.00
2022-12-11T01:48:59.764Z,100.00
2022-12-11T01:51:29.298Z,100.00
2022-12-11T01:54:02.301Z,100.00
2022-12-11T01:56:32.410Z,100.00
2022-12-11T01:59:02.920Z,100.00
2022-12-11T02:01:37.033Z,100.00
2022-12-11T02:04:04.317Z,100.00
2022-12-11T02:06:34.974Z,100.00
2022-12-11T02:09:03.336Z,100.00
2022-12-11T02:11:40.483Z,100.00
2022-12-11T02:14:48.503Z,100.00
2022-12-11T02:17:22.562Z,100.00
2022-12-11T02:20:12.921Z,100.00
2022-12-11T02:22:48.276Z,100.00
2022-12-11T02:25:25.665Z,100.00
2022-12-11T02:28:06.660Z,100.00
2022-12-11T02:30:37.099Z,100.00
2022-12-11T02:33:03.599Z,100.00
2022-12-11T02:35:38.089Z,100.00
2022-12-11T02:38:10.146Z,100.00
2022-12-11T02:40:39.857Z,100.00
2022-12-11T02:43:09.984Z,100.00
2022-12-11T02:45:39.699Z,100.00
2022-12-11T02:48:08.127Z,100.00
2022-12-11T02:50:37.948Z,100.00
2022-12-11T02:53:07.229Z,100.00
2022-12-11T02:55:37.327Z,100.00
2022-12-11T02:58:13.026Z,100.00
2022-12-11T03:00:39.562Z,100.00
2022-12-11T03:03:06.157Z,100.00
2022-12-11T03:05:32.681Z,100.00
2022-12-11T03:07:59.129Z,100.00
2022-12-11T03:10:25.570Z,100.00
2022-12-11T03:12:55.443Z,100.00
2022-12-11T03:15:30.175Z,100.00
2022-12-11T03:18:35.602Z,100.00
2022-12-11T03:21:23.984Z,100.00
2022-12-11T03:24:05.146Z,100.00
2022-12-11T03:26:39.178Z,100.00
2022-12-11T03:29:16.768Z,100.00
2022-12-11T03:32:09.489Z,100.00
2022-12-11T03:34:44.425Z,100.00
2022-12-11T03:37:13.221Z,100.00
2022-12-11T03:39:46.623Z,100.00
2022-12-11T03:42:16.441Z,100.00
2022-12-11T03:44:47.574Z,100.00
2022-12-11T03:47:19.750Z,100.00
2022-12-11T03:49:48.536Z,100.00
2022-12-11T03:52:16.821Z,100.00
2022-12-11T03:54:46.233Z,100.00
2022-12-11T03:57:16.101Z,100.00
2022-12-11T03:59:42.567Z,100.00
2022-12-11T04:02:10.693Z,100.00
2022-12-11T04:04:41.698Z,100.00
2022-12-11T04:07:09.178Z,100.00
2022-12-11T04:09:35.727Z,100.00
2022-12-11T04:12:02.045Z,100.00
2022-12-11T04:14:47.322Z,100.00
2022-12-11T04:17:33.654Z,100.00
2022-12-11T04:20:18.522Z,100.00
2022-12-11T04:23:03.246Z,100.00
2022-12-11T04:25:29.650Z,100.00
2022-12-11T04:27:56.025Z,100.00
2022-12-11T04:30:28.009Z,100.00
2022-12-11T04:32:57.178Z,100.00
2022-12-11T04:35:23.638Z,100.00
2022-12-11T04:37:50.242Z,100.00
2022-12-11T04:40:19.049Z,100.00
2022-12-11T04:42:45.701Z,100.00
2022-12-11T04:45:13.127Z,100.00
2022-12-11T04:47:41.255Z,100.00
2022-12-11T04:50:11.408Z,100.00
2022-12-11T04:52:37.863Z,100.00
2022-12-11T04:55:06.274Z,100.00
2022-12-11T04:57:32.673Z,100.00
2022-12-11T04:59:59.867Z,100.00
2022-12-11T05:02:26.804Z,100.00
2022-12-11T05:04:53.237Z,100.00
2022-12-11T05:07:19.601Z,100.00
2022-12-11T05:09:45.954Z,100.00
2022-12-11T05:12:12.287Z,100.00
2022-12-11T05:14:38.797Z,100.00
2022-12-11T05:17:05.186Z,100.00
2022-12-11T05:19:31.558Z,100.00
2022-12-11T05:21:57.940Z,100.00
2022-12-11T05:24:24.334Z,100.00
2022-12-11T05:26:50.743Z,100.00
2022-12-11T05:29:17.087Z,100.00
2022-12-11T05:31:43.738Z,100.00
2022-12-11T05:34:10.291Z,100.00
2022-12-11T05:36:36.933Z,100.00
2022-12-11T05:39:04.275Z,100.00
2022-12-11T05:41:32.674Z,100.00
2022-12-11T05:44:00.210Z,100.00
2022-12-11T05:46:29.182Z,100.00
2022-12-11T05:48:58.231Z,100.00
2022-12-11T05:51:25.448Z,100.00
2022-12-11T05:53:53.007Z,100.00
2022-12-11T05:56:28.195Z,100.00
2022-12-11T05:58:55.707Z,100.00
2022-12-11T06:01:26.550Z,100.00
2022-12-11T06:03:54.451Z,100.00
2022-12-11T06:06:21.221Z,100.00
2022-12-11T06:08:51.146Z,100.00
2022-12-11T06:11:23.609Z,100.00
2022-12-11T06:13:50.561Z,100.00
2022-12-11T06:16:17.098Z,100.00
2022-12-11T06:18:44.906Z,100.00
2022-12-11T06:21:15.071Z,100.00
2022-12-11T06:23:42.626Z,100.00
2022-12-11T06:26:10.329Z,100.00
2022-12-11T06:28:37.246Z,100.00
2022-12-11T06:31:04.748Z,100.00
2022-12-11T06:33:31.483Z,100.00
2022-12-11T06:36:05.904Z,100.00
2022-12-11T06:38:32.507Z,100.00
2022-12-11T06:41:02.472Z,100.00
2022-12-11T06:43:28.801Z,100.00
2022-12-11T06:45:59.167Z,100.00
2022-12-11T06:48:28.657Z,100.00
2022-12-11T06:50:55.052Z,100.00
2022-12-11T06:53:22.061Z,100.00
2022-12-11T06:55:48.401Z,100.00
2022-12-11T06:58:14.859Z,100.00
2022-12-11T07:00:41.323Z,100.00
2022-12-11T07:03:07.774Z,100.00
2022-12-11T07:05:34.463Z,100.00
2022-12-11T07:08:01.633Z,100.00
2022-12-11T07:10:28.025Z,100.00
2022-12-11T07:12:54.818Z,100.00
2022-12-11T07:15:21.320Z,100.00
2022-12-11T07:17:47.709Z,100.00
2022-12-11T07:20:14.284Z,100.00
2022-12-11T07:22:46.271Z,100.00
2022-12-11T07:25:13.663Z,100.00
2022-12-11T07:27:41.404Z,100.00
2022-12-11T07:30:09.111Z,100.00
2022-12-11T07:32:35.682Z,100.00
2022-12-11T07:35:02.198Z,100.00
2022-12-11T07:37:28.582Z,100.00
2022-12-11T07:39:54.995Z,100.00
2022-12-11T07:42:21.466Z,100.00
2022-12-11T07:44:47.946Z,100.00
2022-12-11T07:47:14.312Z,100.00
2022-12-11T07:49:40.698Z,100.00
2022-12-11T07:52:07.037Z,100.00
2022-12-11T07:54:33.399Z,100.00
2022-12-11T07:56:59.783Z,100.00
2022-12-11T07:59:26.231Z,100.00
2022-12-11T08:01:52.762Z,100.00
2022-12-11T08:04:19.215Z,100.00
2022-12-11T08:06:45.637Z,100.00
2022-12-11T08:09:20.613Z,100.00
2022-12-11T08:11:51.897Z,100.00
2022-12-11T08:14:19.535Z,100.00
2022-12-11T08:16:46.069Z,100.00
2022-12-11T08:19:13.309Z,100.00
2022-12-11T08:21:40.639Z,100.00
2022-12-11T08:24:08.828Z,100.00
2022-12-11T08:26:35.193Z,100.00
2022-12-11T08:29:02.585Z,100.00
2022-12-11T08:31:29.844Z,100.00
2022-12-11T08:33:57.248Z,100.00
2022-12-11T08:36:24.187Z,100.00
2022-12-11T08:38:51.188Z,100.00
2022-12-11T08:41:20.361Z,100.00
2022-12-11T08:43:47.015Z,100.00
2022-12-11T08:46:14.542Z,100.00
2022-12-11T08:48:42.563Z,100.00
2022-12-11T08:51:13.863Z,100.00
2022-12-11T08:53:40.671Z,100.00
2022-12-11T08:56:13.501Z,100.00
2022-12-11T08:58:39.993Z,100.00
2022-12-11T09:01:08.905Z,100.00
2022-12-11T09:03:37.025Z,100.00
2022-12-11T09:06:05.577Z,100.00
2022-12-11T09:08:33.381Z,100.00
2022-12-11T09:11:07.050Z,100.00
2022-12-11T09:13:33.808Z,100.00
2022-12-11T09:16:00.485Z,100.00
2022-12-11T09:18:27.217Z,100.00
2022-12-11T09:21:05.125Z,100.00
2022-12-11T09:23:31.549Z,100.00
2022-12-11T09:25:58.266Z,100.00
2022-12-11T09:28:25.822Z,100.00
2022-12-11T09:30:52.607Z,100.00
2022-12-11T09:33:19.202Z,100.00
2022-12-11T09:35:45.587Z,100.00
2022-12-11T09:38:11.978Z,100.00
2022-12-11T09:40:43.231Z,100.00
2022-12-11T09:43:16.913Z,100.00
2022-12-11T09:45:43.273Z,100.00
2022-12-11T09:48:11.094Z,100.00
2022-12-11T09:50:37.637Z,100.00
2022-12-11T09:53:13.050Z,100.00
2022-12-11T09:55:54.753Z,100.00
2022-12-11T09:58:34.495Z,100.00
2022-12-11T10:01:14.369Z,100.00
2022-12-11T10:03:50.314Z,100.00
2022-12-11T10:06:22.771Z,100.00
2022-12-11T10:09:13.775Z,100.00
2022-12-11T10:11:56.933Z,100.00
2022-12-11T10:14:44.175Z,100.00
2022-12-11T10:17:16.086Z,100.00
2022-12-11T10:19:42.931Z,100.00
2022-12-11T10:22:18.230Z,100.00
2022-12-11T10:27:41.432Z,100.00
2022-12-11T10:30:34.734Z,100.00
2022-12-11T10:33:38.777Z,100.00
2022-12-11T10:36:08.835Z,100.00
2022-12-11T10:38:41.147Z,100.00
2022-12-11T10:41:18.867Z,100.00
2022-12-11T10:43:48.872Z,100.00
2022-12-11T10:46:32.995Z,100.00
2022-12-11T10:49:00.541Z,100.00
2022-12-11T10:51:32.912Z,100.00
2022-12-11T10:54:24.716Z,100.00
2022-12-11T10:56:51.539Z,100.00
2022-12-11T10:59:29.642Z,100.00
2022-12-11T11:01:57.581Z,100.00
2022-12-11T11:04:31.222Z,100.00
2022-12-11T11:07:03.421Z,100.00
2022-12-11T11:09:35.449Z,100.00
2022-12-11T11:12:07.696Z,100.00
2022-12-11T11:14:34.654Z,100.00
2022-12-11T11:17:01.347Z,100.00
2022-12-11T11:19:32.404Z,100.00
2022-12-11T11:22:06.576Z,100.00
2022-12-11T11:24:40.570Z,100.00
2022-12-11T11:27:48.708Z,100.00
2022-12-11T11:30:35.306Z,100.00
2022-12-11T11:33:12.724Z,100.00
2022-12-11T11:35:44.222Z,100.00
2022-12-11T11:38:26.656Z,100.00
2022-12-11T11:41:10.107Z,100.00
2022-12-11T11:43:47.363Z,100.00
2022-12-11T11:46:25.758Z,100.00
2022-12-11T11:49:20.618Z,100.00
2022-12-11T11:52:01.043Z,100.00
2022-12-11T11:54:36.060Z,100.00
2022-12-11T11:57:15.710Z,100.00
2022-12-11T11:59:47.510Z,100.00
2022-12-11T12:02:16.701Z,100.00
2022-12-11T12:04:44.039Z,100.00
2022-12-11T12:07:23.725Z,100.00
2022-12-11T12:10:35.272Z,100.00
2022-12-11T12:13:44.743Z,100.00
2022-12-11T12:16:02.889Z,100.00
2022-12-11T12:18:58.615Z,100.00
2022-12-11T12:21:35.537Z,100.00
2022-12-11T12:24:35.951Z,100.00
2022-12-11T12:27:50.398Z,100.00
2022-12-11T12:30:21.988Z,100.00
2022-12-11T12:33:25.968Z,100.00
2022-12-11T12:36:13.432Z,100.00
2022-12-11T12:39:04.423Z,100.00
2022-12-11T12:41:30.848Z,100.00
2022-12-11T12:44:02.792Z,100.00
2022-12-11T12:46:54.978Z,100.00
2022-12-11T12:49:33.256Z,100.00
2022-12-11T12:52:01.814Z,100.00
2022-12-11T12:54:30.152Z,100.00
2022-12-11T12:56:58.796Z,100.00
2022-12-11T12:59:27.374Z,100.00
2022-12-11T13:01:59.919Z,100.00
2022-12-11T13:04:56.716Z,100.00
2022-12-11T13:07:30.075Z,100.00
2022-12-11T13:09:59.750Z,100.00
2022-12-11T13:12:41.905Z,100.00
2022-12-11T13:15:43.510Z,100.00
2022-12-11T13:18:34.796Z,100.00
2022-12-11T13:21:03.298Z,100.00
2022-12-11T13:23:32.194Z,100.00
2022-12-11T13:26:01.055Z,100.00
2022-12-11T13:28:33.094Z,100.00
2022-12-11T13:31:02.179Z,100.00
2022-12-11T13:33:30.452Z,100.00
2022-12-11T13:36:15.762Z,100.00
2022-12-11T13:38:48.927Z,100.00
2022-12-11T13:41:15.498Z,100.00
2022-12-11T13:43:44.042Z,100.00
2022-12-11T13:46:13.495Z,100.00
2022-12-11T13:48:47.788Z,100.00
2022-12-11T13:51:18.317Z,100.00
2022-12-11T13:53:45.297Z,100.00
2022-12-11T13:56:22.426Z,100.00
2022-12-11T13:58:49.020Z,100.00
2022-12-11T14:01:29.095Z,100.00
2022-12-11T14:03:58.918Z,100.00
2022-12-11T14:06:27.924Z,100.00
2022-12-11T14:08:57.077Z,100.00
2022-12-11T14:11:39.042Z,100.00
2022-12-11T14:14:16.536Z,100.00
2022-12-11T14:16:43.077Z,100.00
2022-12-11T14:19:10.865Z,100.00
2022-12-11T14:21:37.346Z,100.00
2022-12-11T14:24:06.434Z,100.00
2022-12-11T14:26:34.995Z,100.00
2022-12-11T14:29:02.734Z,100.00
2022-12-11T14:31:34.805Z,100.00
2022-12-11T14:34:28.127Z,100.00
2022-12-11T14:36:56.025Z,100.00
2022-12-11T14:39:33.877Z,100.00
2022-12-11T14:42:04.929Z,100.00
2022-12-11T14:44:42.266Z,100.00
2022-12-11T14:47:18.849Z,100.00
2022-12-11T14:49:54.340Z,100.00
2022-12-11T14:52:29.139Z,100.00
2022-12-11T14:55:03.781Z,100.00
2022-12-11T14:57:33.074Z,100.00
2022-12-11T14:59:59.954Z,100.00
2022-12-11T15:02:35.516Z,100.00
2022-12-11T15:05:10.713Z,100.00
2022-12-11T15:07:37.274Z,100.00
2022-12-11T15:10:04.569Z,100.00
2022-12-11T15:12:31.806Z,100.00
2022-12-11T15:15:06.313Z,100.00
2022-12-11T15:17:36.951Z,100.00
2022-12-11T15:20:08.692Z,100.00
2022-12-11T15:22:36.270Z,100.00
2022-12-11T15:25:03.617Z,100.00
2022-12-11T15:27:39.789Z,100.00
2022-12-11T15:30:26.368Z,100.00
2022-12-11T15:33:17.342Z,100.00
2022-12-11T15:35:56.235Z,100.00
2022-12-11T15:38:48.915Z,100.00
2022-12-11T15:41:20.965Z,100.00
2022-12-11T15:43:47.878Z,100.00
2022-12-11T15:46:14.351Z,100.00
2022-12-11T15:48:40.814Z,100.00
2022-12-11T15:51:07.287Z,100.00
2022-12-11T15:53:33.652Z,100.00
2022-12-11T15:56:00.363Z,100.00
2022-12-11T15:58:27.331Z,100.00
2022-12-11T16:00:54.661Z,100.00
2022-12-11T16:03:22.747Z,100.00
2022-12-11T16:05:51.342Z,100.00
2022-12-11T16:08:21.571Z,100.00
2022-12-11T16:10:48.735Z,100.00
2022-12-11T16:13:15.176Z,100.00
2022-12-11T16:15:44.695Z,100.00
2022-12-11T16:18:14.129Z,100.00
2022-12-11T16:20:41.660Z,100.00
2022-12-11T16:23:09.416Z,100.00
2022-12-11T16:25:39.930Z,100.00
2022-12-11T16:28:06.901Z,100.00
2022-12-11T16:30:35.879Z,100.00
2022-12-11T16:33:10.297Z,100.00
2022-12-11T16:35:38.688Z,100.00
2022-12-11T16:38:05.224Z,100.00
2022-12-11T16:40:31.662Z,100.00
2022-12-11T16:42:58.097Z,100.00
2022-12-11T16:45:26.099Z,100.00
2022-12-11T16:47:52.987Z,100.00
2022-12-11T16:50:19.682Z,100.00
2022-12-11T16:52:47.239Z,100.00
2022-12-11T16:55:15.064Z,100.00
2022-12-11T16:57:41.941Z,100.00
2022-12-11T17:00:12.070Z,100.00
2022-12-11T17:02:38.802Z,100.00
2022-12-11T17:05:05.544Z,100.00
2022-12-11T17:07:32.697Z,100.00
2022-12-11T17:10:00.566Z,100.00
2022-12-11T17:12:27.895Z,100.00
2022-12-11T17:14:55.584Z,100.00
2022-12-11T17:17:21.976Z,100.00
2022-12-11T17:19:48.384Z,100.00
2022-12-11T17:22:15.173Z,100.00
2022-12-11T17:24:41.529Z,100.00
2022-12-11T17:27:08.233Z,100.00
2022-12-11T17:29:34.658Z,100.00
2022-12-11T17:32:03.007Z,100.00
2022-12-11T17:34:34.588Z,100.00
2022-12-11T17:37:04.510Z,100.00
2022-12-11T17:39:32.342Z,100.00
2022-12-11T17:41:58.851Z,100.00
2022-12-11T17:44:26.507Z,100.00
2022-12-11T17:46:53.065Z,100.00
2022-12-11T17:49:19.728Z,100.00
2022-12-11T17:51:46.294Z,100.00
2022-12-11T17:54:12.811Z,100.00
2022-12-11T17:56:39.291Z,100.00
2022-12-11T17:59:05.911Z,100.00
2022-12-11T18:01:32.985Z,100.00
2022-12-11T18:04:01.634Z,100.00
2022-12-11T18:06:28.994Z,100.00
2022-12-11T18:08:55.795Z,100.00
2022-12-11T18:11:23.033Z,100.00
2022-12-11T18:13:50.742Z,100.00
2022-12-11T18:16:28.783Z,100.00
2022-12-11T18:18:56.387Z,100.00
2022-12-11T18:21:26.122Z,100.00
2022-12-11T18:23:53.387Z,100.00
2022-12-11T18:26:20.112Z,100.00
2022-12-11T18:28:47.547Z,100.00
2022-12-11T18:31:14.483Z,100.00
2022-12-11T18:33:42.806Z,100.00
2022-12-11T18:36:10.294Z,100.00
2022-12-11T18:38:37.190Z,100.00
2022-12-11T18:41:05.664Z,100.00
2022-12-11T18:43:32.421Z,100.00
2022-12-11T18:45:58.862Z,100.00
2022-12-11T18:48:25.229Z,100.00
2022-12-11T18:50:52.596Z,100.00
2022-12-11T18:53:19.521Z,100.00
2022-12-11T18:55:48.433Z,100.00
2022-12-11T18:58:16.944Z,100.00
2022-12-11T19:00:43.599Z,99.72
2022-12-11T19:03:10.759Z,99.11
2022-12-11T19:05:40.260Z,99.23
2022-12-11T19:08:06.735Z,98.77
2022-12-11T19:10:33.220Z,98.11
2022-12-11T19:12:59.630Z,97.95
2022-12-11T19:15:27.466Z,97.91
2022-12-11T19:17:53.814Z,97.83
2022-12-11T19:23:06.744Z,96.35
2022-12-11T19:25:33.622Z,97.09
2022-12-11T19:28:00.279Z,96.63
2022-12-11T19:30:26.709Z,97.00
2022-12-11T19:32:53.106Z,96.67
2022-12-11T19:35:19.576Z,96.25
2022-12-11T19:37:45.912Z,96.02
2022-12-11T19:40:14.323Z,96.06
2022-12-11T19:42:40.777Z,95.88
2022-12-11T19:45:07.500Z,95.52
2022-12-11T19:47:34.689Z,96.23
2022-12-11T19:50:01.017Z,95.93
2022-12-11T19:52:27.479Z,95.83
2022-12-11T19:54:53.893Z,95.72
2022-12-11T19:57:20.306Z,96.00
2022-12-11T19:59:47.997Z,95.96
2022-12-11T20:02:16.746Z,96.22
2022-12-11T20:04:43.206Z,95.88
2022-12-11T20:07:09.676Z,96.04
2022-12-11T20:09:36.029Z,95.62
2022-12-11T20:12:03.382Z,95.79
2022-12-11T20:14:29.912Z,96.03
2022-12-11T20:17:14.727Z,96.08
2022-12-11T20:19:42.106Z,95.65
2022-12-11T20:22:09.169Z,95.86
2022-12-11T20:24:35.946Z,96.14
2022-12-11T20:27:02.647Z,95.97
2022-12-11T20:29:29.053Z,96.20
2022-12-11T20:31:55.544Z,96.72
2022-12-11T20:34:21.986Z,96.64
2022-12-11T20:36:48.859Z,96.38
2022-12-11T20:39:15.577Z,96.79
2022-12-11T20:41:42.015Z,97.38
2022-12-11T20:44:08.491Z,97.54
2022-12-11T20:46:35.011Z,97.45
2022-12-11T20:49:01.584Z,97.62
2022-12-11T20:51:28.932Z,97.54
2022-12-11T20:53:59.064Z,97.33
2022-12-11T20:56:29.437Z,97.48
2022-12-11T20:58:57.508Z,97.36
2022-12-11T21:01:25.993Z,97.47
2022-12-11T21:03:53.479Z,97.21
2022-12-11T21:06:25.976Z,97.06
2022-12-11T21:08:53.782Z,97.50
2022-12-11T21:11:20.413Z,97.56
2022-12-11T21:13:46.936Z,97.77
2022-12-11T21:16:13.440Z,97.38
2022-12-11T21:18:41.429Z,96.35
2022-12-11T21:21:07.898Z,96.37
2022-12-11T21:23:34.574Z,96.28
2022-12-11T21:26:01.634Z,96.42
2022-12-11T21:28:33.566Z,95.75
2022-12-11T21:31:07.562Z,96.33
2022-12-11T21:33:34.101Z,96.60
2022-12-11T21:36:00.857Z,96.15
2022-12-11T21:38:29.368Z,96.43
2022-12-11T21:40:56.420Z,96.74
2022-12-11T21:43:24.012Z,96.50
2022-12-11T21:46:06.490Z,96.78
2022-12-11T21:48:33.237Z,96.37
2022-12-11T21:51:10.248Z,96.53
2022-12-11T21:53:36.904Z,96.67
2022-12-11T21:56:09.421Z,96.49
2022-12-11T21:58:37.689Z,96.72
2022-12-11T22:01:06.760Z,96.53
2022-12-11T22:03:33.219Z,96.88
2022-12-11T22:05:59.537Z,96.97
2022-12-11T22:08:26.025Z,96.79
2022-12-11T22:10:52.542Z,96.70
2022-12-11T22:13:19.093Z,96.58
2022-12-11T22:15:45.916Z,97.04
2022-12-11T22:18:12.866Z,96.72
2022-12-11T22:20:39.220Z,97.39
2022-12-11T22:23:05.548Z,96.91
2022-12-11T22:25:31.944Z,96.66
2022-12-11T22:27:58.347Z,97.24
2022-12-11T22:30:24.868Z,97.26
2022-12-11T22:32:51.271Z,97.36
2022-12-11T22:35:17.849Z,97.05
2022-12-11T22:37:44.190Z,97.59
2022-12-11T22:40:10.837Z,97.53
2022-12-11T22:42:37.185Z,97.63
2022-12-11T22:45:04.337Z,97.61
2022-12-11T22:47:30.723Z,97.62
2022-12-11T22:49:57.112Z,97.79
2022-12-11T22:52:23.563Z,97.65
2022-12-11T22:54:50.006Z,98.22
2022-12-11T22:57:16.350Z,98.03
2022-12-11T22:59:42.776Z,97.88
2022-12-11T23:02:09.368Z,98.24
2022-12-11T23:04:35.871Z,98.08
2022-12-11T23:07:02.383Z,98.20
2022-12-11T23:09:28.809Z,97.96
2022-12-11T23:11:55.738Z,98.53
2022-12-11T23:14:22.303Z,98.54
2022-12-11T23:16:48.735Z,98.30
2022-12-11T23:19:16.293Z,98.83
2022-12-11T23:21:44.183Z,98.97
2022-12-11T23:24:10.944Z,98.53
2022-12-11T23:26:37.509Z,98.85
2022-12-11T23:29:05.653Z,98.67
2022-12-11T23:31:32.879Z,98.93
2022-12-11T23:33:59.707Z,98.89
2022-12-11T23:36:26.597Z,98.65
2022-12-11T23:38:54.974Z,98.59
2022-12-11T23:41:22.365Z,98.85
2022-12-11T23:43:48.769Z,98.76
2022-12-11T23:46:19.019Z,99.13
2022-12-11T23:48:46.093Z,99.05
2022-12-11T23:51:15.430Z,99.10
2022-12-11T23:53:42.383Z,99.43
2022-12-11T23:56:12.358Z,99.00
2022-12-11T23:58:39.713Z,99.13
